sensor_id;sensor_type;location;lat;lon;timestamp;P1;durP1;ratioP1;P2;durP2;ratioP2
1785;SDS011;890;48.158;11.540;2023-12-20T00:01:01;3.40;;;3.10;;
1785;SDS011;890;48.158;11.540;2023-12-20T00:03:27;4.43;;;3.80;;
1785;SDS011;890;48.158;11.540;2023-12-20T00:05:52;4.47;;;3.60;;
1785;SDS011;890;48.158;11.540;2023-12-20T00:08:19;3.80;;;3.40;;
1785;SDS011;890;48.158;11.540;2023-12-20T00:10:44;4.37;;;3.83;;
1785;SDS011;890;48.158;11.540;2023-12-20T00:13:10;3.50;;;3.20;;
1785;SDS011;890;48.158;11.540;2023-12-20T00:15:37;3.70;;;3.17;;
1785;SDS011;890;48.158;11.540;2023-12-20T00:18:03;3.70;;;3.37;;
1785;SDS011;890;48.158;11.540;2023-12-20T00:20:29;4.60;;;4.10;;
1785;SDS011;890;48.158;11.540;2023-12-20T00:22:58;4.07;;;3.67;;
1785;SDS011;890;48.158;11.540;2023-12-20T00:25:24;3.17;;;2.73;;
1785;SDS011;890;48.158;11.540;2023-12-20T00:27:50;4.50;;;3.30;;
1785;SDS011;890;48.158;11.540;2023-12-20T00:30:16;3.60;;;3.30;;
1785;SDS011;890;48.158;11.540;2023-12-20T00:32:41;4.00;;;3.00;;
1785;SDS011;890;48.158;11.540;2023-12-20T00:35:13;3.57;;;3.27;;
1785;SDS011;890;48.158;11.540;2023-12-20T00:37:39;3.17;;;2.73;;
1785;SDS011;890;48.158;11.540;2023-12-20T00:40:05;5.03;;;2.80;;
1785;SDS011;890;48.158;11.540;2023-12-20T00:42:31;3.30;;;2.83;;
1785;SDS011;890;48.158;11.540;2023-12-20T00:44:59;3.20;;;2.90;;
1785;SDS011;890;48.158;11.540;2023-12-20T00:47:25;3.73;;;3.07;;
1785;SDS011;890;48.158;11.540;2023-12-20T00:49:51;3.00;;;2.67;;
1785;SDS011;890;48.158;11.540;2023-12-20T00:52:18;2.87;;;2.60;;
1785;SDS011;890;48.158;11.540;2023-12-20T00:54:45;3.27;;;2.97;;
1785;SDS011;890;48.158;11.540;2023-12-20T00:57:11;2.70;;;2.50;;
1785;SDS011;890;48.158;11.540;2023-12-20T00:59:36;3.40;;;2.90;;
1785;SDS011;890;48.158;11.540;2023-12-20T01:02:02;3.47;;;2.83;;
1785;SDS011;890;48.158;11.540;2023-12-20T01:04:28;3.00;;;2.70;;
1785;SDS011;890;48.158;11.540;2023-12-20T01:06:53;3.10;;;2.70;;
1785;SDS011;890;48.158;11.540;2023-12-20T01:09:19;3.20;;;2.30;;
1785;SDS011;890;48.158;11.540;2023-12-20T01:11:49;3.47;;;2.60;;
1785;SDS011;890;48.158;11.540;2023-12-20T01:14:14;2.53;;;2.33;;
1785;SDS011;890;48.158;11.540;2023-12-20T01:16:40;2.93;;;2.63;;
1785;SDS011;890;48.158;11.540;2023-12-20T01:19:05;2.87;;;2.30;;
1785;SDS011;890;48.158;11.540;2023-12-20T01:21:32;2.70;;;2.27;;
1785;SDS011;890;48.158;11.540;2023-12-20T01:23:58;2.70;;;2.50;;
1785;SDS011;890;48.158;11.540;2023-12-20T01:26:24;3.93;;;2.20;;
1785;SDS011;890;48.158;11.540;2023-12-20T01:28:49;2.83;;;2.10;;
1785;SDS011;890;48.158;11.540;2023-12-20T01:31:16;2.10;;;1.90;;
1785;SDS011;890;48.158;11.540;2023-12-20T01:33:42;3.90;;;2.37;;
1785;SDS011;890;48.158;11.540;2023-12-20T01:36:07;3.17;;;2.10;;
1785;SDS011;890;48.158;11.540;2023-12-20T01:38:34;2.43;;;2.20;;
1785;SDS011;890;48.158;11.540;2023-12-20T01:41:00;2.00;;;1.80;;
1785;SDS011;890;48.158;11.540;2023-12-20T01:43:25;2.73;;;2.50;;
1785;SDS011;890;48.158;11.540;2023-12-20T01:45:51;2.47;;;2.10;;
1785;SDS011;890;48.158;11.540;2023-12-20T01:48:17;3.00;;;1.90;;
1785;SDS011;890;48.158;11.540;2023-12-20T01:50:45;2.27;;;2.07;;
1785;SDS011;890;48.158;11.540;2023-12-20T01:53:11;3.00;;;2.20;;
1785;SDS011;890;48.158;11.540;2023-12-20T01:55:38;2.40;;;2.07;;
1785;SDS011;890;48.158;11.540;2023-12-20T01:58:05;2.90;;;2.10;;
1785;SDS011;890;48.158;11.540;2023-12-20T02:00:36;2.97;;;2.23;;
1785;SDS011;890;48.158;11.540;2023-12-20T02:03:02;2.20;;;1.90;;
1785;SDS011;890;48.158;11.540;2023-12-20T02:05:32;2.50;;;2.30;;
1785;SDS011;890;48.158;11.540;2023-12-20T02:07:58;2.03;;;1.80;;
1785;SDS011;890;48.158;11.540;2023-12-20T02:10:24;2.40;;;1.80;;
1785;SDS011;890;48.158;11.540;2023-12-20T02:12:51;1.93;;;1.73;;
1785;SDS011;890;48.158;11.540;2023-12-20T02:15:17;1.90;;;1.67;;
1785;SDS011;890;48.158;11.540;2023-12-20T02:17:43;2.03;;;1.80;;
1785;SDS011;890;48.158;11.540;2023-12-20T02:20:10;2.30;;;1.83;;
1785;SDS011;890;48.158;11.540;2023-12-20T02:22:36;2.27;;;1.87;;
1785;SDS011;890;48.158;11.540;2023-12-20T02:25:02;1.83;;;1.73;;
1785;SDS011;890;48.158;11.540;2023-12-20T02:27:29;1.73;;;1.50;;
1785;SDS011;890;48.158;11.540;2023-12-20T02:29:55;1.47;;;1.30;;
1785;SDS011;890;48.158;11.540;2023-12-20T02:32:21;1.60;;;1.40;;
1785;SDS011;890;48.158;11.540;2023-12-20T02:34:47;1.80;;;1.30;;
1785;SDS011;890;48.158;11.540;2023-12-20T02:37:13;1.50;;;1.30;;
1785;SDS011;890;48.158;11.540;2023-12-20T02:39:39;1.80;;;1.53;;
1785;SDS011;890;48.158;11.540;2023-12-20T02:42:06;1.47;;;1.13;;
1785;SDS011;890;48.158;11.540;2023-12-20T02:44:33;1.40;;;1.13;;
1785;SDS011;890;48.158;11.540;2023-12-20T02:46:59;1.50;;;1.30;;
1785;SDS011;890;48.158;11.540;2023-12-20T02:49:25;1.30;;;1.10;;
1785;SDS011;890;48.158;11.540;2023-12-20T02:51:50;1.70;;;1.20;;
1785;SDS011;890;48.158;11.540;2023-12-20T02:54:16;1.67;;;1.20;;
1785;SDS011;890;48.158;11.540;2023-12-20T02:56:41;2.17;;;1.20;;
1785;SDS011;890;48.158;11.540;2023-12-20T02:59:07;2.00;;;1.30;;
1785;SDS011;890;48.158;11.540;2023-12-20T03:01:35;1.30;;;1.03;;
1785;SDS011;890;48.158;11.540;2023-12-20T03:04:06;1.10;;;1.00;;
1785;SDS011;890;48.158;11.540;2023-12-20T03:06:32;1.37;;;1.27;;
1785;SDS011;890;48.158;11.540;2023-12-20T03:08:57;1.30;;;1.10;;
1785;SDS011;890;48.158;11.540;2023-12-20T03:11:26;1.60;;;1.10;;
1785;SDS011;890;48.158;11.540;2023-12-20T03:13:52;1.30;;;1.20;;
1785;SDS011;890;48.158;11.540;2023-12-20T03:16:18;1.90;;;1.10;;
1785;SDS011;890;48.158;11.540;2023-12-20T03:18:43;1.53;;;1.20;;
1785;SDS011;890;48.158;11.540;2023-12-20T03:21:09;1.60;;;1.20;;
1785;SDS011;890;48.158;11.540;2023-12-20T03:23:35;1.50;;;1.20;;
1785;SDS011;890;48.158;11.540;2023-12-20T03:26:01;1.57;;;1.27;;
1785;SDS011;890;48.158;11.540;2023-12-20T03:28:31;1.30;;;1.03;;
1785;SDS011;890;48.158;11.540;2023-12-20T03:30:57;1.23;;;1.07;;
1785;SDS011;890;48.158;11.540;2023-12-20T03:33:23;2.23;;;1.23;;
1785;SDS011;890;48.158;11.540;2023-12-20T03:35:48;1.70;;;1.33;;
1785;SDS011;890;48.158;11.540;2023-12-20T03:38:14;2.30;;;1.00;;
1785;SDS011;890;48.158;11.540;2023-12-20T03:40:40;1.40;;;1.20;;
1785;SDS011;890;48.158;11.540;2023-12-20T03:43:05;1.33;;;1.20;;
1785;SDS011;890;48.158;11.540;2023-12-20T03:45:31;2.50;;;1.20;;
1785;SDS011;890;48.158;11.540;2023-12-20T03:47:56;1.27;;;1.03;;
1785;SDS011;890;48.158;11.540;2023-12-20T03:50:22;1.53;;;1.10;;
1785;SDS011;890;48.158;11.540;2023-12-20T03:52:48;1.70;;;1.10;;
1785;SDS011;890;48.158;11.540;2023-12-20T03:55:14;1.27;;;1.17;;
1785;SDS011;890;48.158;11.540;2023-12-20T03:57:41;1.50;;;1.30;;
1785;SDS011;890;48.158;11.540;2023-12-20T04:00:10;3.30;;;1.27;;
1785;SDS011;890;48.158;11.540;2023-12-20T04:02:39;1.63;;;1.20;;
1785;SDS011;890;48.158;11.540;2023-12-20T04:05:07;2.07;;;1.37;;
1785;SDS011;890;48.158;11.540;2023-12-20T04:07:34;1.50;;;1.23;;
1785;SDS011;890;48.158;11.540;2023-12-20T04:10:01;1.27;;;1.10;;
1785;SDS011;890;48.158;11.540;2023-12-20T04:12:28;1.47;;;1.20;;
1785;SDS011;890;48.158;11.540;2023-12-20T04:14:54;1.40;;;1.30;;
1785;SDS011;890;48.158;11.540;2023-12-20T04:17:21;1.50;;;1.07;;
1785;SDS011;890;48.158;11.540;2023-12-20T04:19:50;1.40;;;1.23;;
1785;SDS011;890;48.158;11.540;2023-12-20T04:22:17;1.97;;;1.10;;
1785;SDS011;890;48.158;11.540;2023-12-20T04:24:43;1.43;;;1.33;;
1785;SDS011;890;48.158;11.540;2023-12-20T04:27:11;1.40;;;1.20;;
1785;SDS011;890;48.158;11.540;2023-12-20T04:29:37;1.70;;;1.40;;
1785;SDS011;890;48.158;11.540;2023-12-20T04:32:03;1.70;;;1.60;;
1785;SDS011;890;48.158;11.540;2023-12-20T04:34:29;2.00;;;1.60;;
1785;SDS011;890;48.158;11.540;2023-12-20T04:36:55;1.90;;;1.60;;
1785;SDS011;890;48.158;11.540;2023-12-20T04:39:21;1.57;;;1.47;;
1785;SDS011;890;48.158;11.540;2023-12-20T04:41:48;1.67;;;1.57;;
1785;SDS011;890;48.158;11.540;2023-12-20T04:44:15;2.37;;;1.80;;
1785;SDS011;890;48.158;11.540;2023-12-20T04:46:41;2.00;;;1.80;;
1785;SDS011;890;48.158;11.540;2023-12-20T04:49:06;1.80;;;1.70;;
1785;SDS011;890;48.158;11.540;2023-12-20T04:51:35;2.33;;;2.10;;
1785;SDS011;890;48.158;11.540;2023-12-20T04:54:01;2.40;;;2.20;;
1785;SDS011;890;48.158;11.540;2023-12-20T04:56:27;2.47;;;2.27;;
1785;SDS011;890;48.158;11.540;2023-12-20T04:58:53;2.90;;;2.40;;
1785;SDS011;890;48.158;11.540;2023-12-20T05:01:18;2.83;;;2.47;;
1785;SDS011;890;48.158;11.540;2023-12-20T05:03:44;3.17;;;2.87;;
1785;SDS011;890;48.158;11.540;2023-12-20T05:06:10;3.00;;;2.70;;
1785;SDS011;890;48.158;11.540;2023-12-20T05:08:36;3.43;;;3.13;;
1785;SDS011;890;48.158;11.540;2023-12-20T05:11:01;3.43;;;3.13;;
1785;SDS011;890;48.158;11.540;2023-12-20T05:13:27;3.73;;;3.10;;
1785;SDS011;890;48.158;11.540;2023-12-20T05:15:53;3.30;;;3.00;;
1785;SDS011;890;48.158;11.540;2023-12-20T05:18:19;5.20;;;3.20;;
1785;SDS011;890;48.158;11.540;2023-12-20T05:20:45;3.77;;;3.33;;
1785;SDS011;890;48.158;11.540;2023-12-20T05:23:11;3.97;;;3.67;;
1785;SDS011;890;48.158;11.540;2023-12-20T05:25:39;4.20;;;3.80;;
1785;SDS011;890;48.158;11.540;2023-12-20T05:28:05;4.80;;;3.67;;
1785;SDS011;890;48.158;11.540;2023-12-20T05:30:31;4.10;;;3.43;;
1785;SDS011;890;48.158;11.540;2023-12-20T05:32:59;4.50;;;3.90;;
1785;SDS011;890;48.158;11.540;2023-12-20T05:35:24;5.17;;;3.70;;
1785;SDS011;890;48.158;11.540;2023-12-20T05:37:50;4.30;;;3.90;;
1785;SDS011;890;48.158;11.540;2023-12-20T05:40:16;4.90;;;4.40;;
1785;SDS011;890;48.158;11.540;2023-12-20T05:42:41;4.83;;;4.33;;
1785;SDS011;890;48.158;11.540;2023-12-20T05:45:07;4.07;;;3.67;;
1785;SDS011;890;48.158;11.540;2023-12-20T05:47:34;4.00;;;3.50;;
1785;SDS011;890;48.158;11.540;2023-12-20T05:50:00;3.47;;;3.17;;
1785;SDS011;890;48.158;11.540;2023-12-20T05:52:25;6.17;;;3.30;;
1785;SDS011;890;48.158;11.540;2023-12-20T05:54:51;3.53;;;3.23;;
1785;SDS011;890;48.158;11.540;2023-12-20T05:57:18;3.80;;;3.40;;
1785;SDS011;890;48.158;11.540;2023-12-20T05:59:44;4.07;;;3.17;;
1785;SDS011;890;48.158;11.540;2023-12-20T06:02:09;3.47;;;3.17;;
1785;SDS011;890;48.158;11.540;2023-12-20T06:04:35;3.50;;;3.20;;
1785;SDS011;890;48.158;11.540;2023-12-20T06:07:00;3.90;;;3.50;;
1785;SDS011;890;48.158;11.540;2023-12-20T06:09:26;2.80;;;2.60;;
1785;SDS011;890;48.158;11.540;2023-12-20T06:11:52;4.80;;;4.10;;
1785;SDS011;890;48.158;11.540;2023-12-20T06:14:18;5.63;;;3.40;;
1785;SDS011;890;48.158;11.540;2023-12-20T06:16:45;3.23;;;2.93;;
1785;SDS011;890;48.158;11.540;2023-12-20T06:19:11;3.97;;;3.67;;
1785;SDS011;890;48.158;11.540;2023-12-20T06:21:37;4.63;;;3.40;;
1785;SDS011;890;48.158;11.540;2023-12-20T06:24:02;3.37;;;3.07;;
1785;SDS011;890;48.158;11.540;2023-12-20T06:26:28;3.70;;;3.40;;
1785;SDS011;890;48.158;11.540;2023-12-20T06:28:54;3.53;;;3.23;;
1785;SDS011;890;48.158;11.540;2023-12-20T06:31:20;4.00;;;3.33;;
1785;SDS011;890;48.158;11.540;2023-12-20T06:33:46;3.60;;;3.30;;
1785;SDS011;890;48.158;11.540;2023-12-20T06:36:12;3.47;;;3.17;;
1785;SDS011;890;48.158;11.540;2023-12-20T06:38:38;3.60;;;3.30;;
1785;SDS011;890;48.158;11.540;2023-12-20T06:41:04;4.07;;;3.67;;
1785;SDS011;890;48.158;11.540;2023-12-20T06:43:31;4.00;;;3.57;;
1785;SDS011;890;48.158;11.540;2023-12-20T06:45:57;3.90;;;3.50;;
1785;SDS011;890;48.158;11.540;2023-12-20T06:48:23;3.77;;;3.47;;
1785;SDS011;890;48.158;11.540;2023-12-20T06:50:49;3.67;;;3.33;;
1785;SDS011;890;48.158;11.540;2023-12-20T06:53:16;3.30;;;3.00;;
1785;SDS011;890;48.158;11.540;2023-12-20T06:55:42;4.30;;;3.90;;
1785;SDS011;890;48.158;11.540;2023-12-20T06:58:08;4.27;;;3.87;;
1785;SDS011;890;48.158;11.540;2023-12-20T07:00:34;3.70;;;3.40;;
1785;SDS011;890;48.158;11.540;2023-12-20T07:02:59;3.50;;;3.10;;
1785;SDS011;890;48.158;11.540;2023-12-20T07:05:25;3.00;;;2.70;;
1785;SDS011;890;48.158;11.540;2023-12-20T07:07:51;3.03;;;2.60;;
1785;SDS011;890;48.158;11.540;2023-12-20T07:10:17;3.93;;;2.60;;
1785;SDS011;890;48.158;11.540;2023-12-20T07:12:43;3.63;;;2.77;;
1785;SDS011;890;48.158;11.540;2023-12-20T07:15:09;2.60;;;2.40;;
1785;SDS011;890;48.158;11.540;2023-12-20T07:17:35;2.67;;;2.30;;
1785;SDS011;890;48.158;11.540;2023-12-20T07:20:00;2.90;;;2.60;;
1785;SDS011;890;48.158;11.540;2023-12-20T07:22:29;2.80;;;2.40;;
1785;SDS011;890;48.158;11.540;2023-12-20T07:24:56;2.40;;;2.00;;
1785;SDS011;890;48.158;11.540;2023-12-20T07:27:22;2.87;;;2.57;;
1785;SDS011;890;48.158;11.540;2023-12-20T07:29:49;3.30;;;3.00;;
1785;SDS011;890;48.158;11.540;2023-12-20T07:32:15;2.70;;;2.10;;
1785;SDS011;890;48.158;11.540;2023-12-20T07:34:41;2.57;;;2.37;;
1785;SDS011;890;48.158;11.540;2023-12-20T07:37:06;3.53;;;2.30;;
1785;SDS011;890;48.158;11.540;2023-12-20T07:39:35;2.30;;;2.10;;
1785;SDS011;890;48.158;11.540;2023-12-20T07:42:01;3.50;;;2.20;;
1785;SDS011;890;48.158;11.540;2023-12-20T07:44:26;2.40;;;1.80;;
1785;SDS011;890;48.158;11.540;2023-12-20T07:46:52;2.40;;;2.10;;
1785;SDS011;890;48.158;11.540;2023-12-20T07:49:19;2.70;;;1.93;;
1785;SDS011;890;48.158;11.540;2023-12-20T07:51:44;4.33;;;2.10;;
1785;SDS011;890;48.158;11.540;2023-12-20T07:54:10;1.70;;;1.50;;
1785;SDS011;890;48.158;11.540;2023-12-20T07:56:36;1.70;;;1.60;;
1785;SDS011;890;48.158;11.540;2023-12-20T07:59:02;2.13;;;1.53;;
1785;SDS011;890;48.158;11.540;2023-12-20T08:01:28;2.50;;;1.70;;
1785;SDS011;890;48.158;11.540;2023-12-20T08:03:54;2.53;;;1.90;;
1785;SDS011;890;48.158;11.540;2023-12-20T08:06:19;2.30;;;1.67;;
1785;SDS011;890;48.158;11.540;2023-12-20T08:08:46;1.70;;;1.50;;
1785;SDS011;890;48.158;11.540;2023-12-20T08:11:11;1.80;;;1.60;;
1785;SDS011;890;48.158;11.540;2023-12-20T08:13:37;1.93;;;1.50;;
1785;SDS011;890;48.158;11.540;2023-12-20T08:16:03;1.80;;;1.60;;
1785;SDS011;890;48.158;11.540;2023-12-20T08:18:29;2.43;;;1.63;;
1785;SDS011;890;48.158;11.540;2023-12-20T08:20:55;1.60;;;1.50;;
1785;SDS011;890;48.158;11.540;2023-12-20T08:23:20;1.70;;;1.60;;
1785;SDS011;890;48.158;11.540;2023-12-20T08:25:47;1.47;;;1.37;;
1785;SDS011;890;48.158;11.540;2023-12-20T08:28:13;1.50;;;1.40;;
1785;SDS011;890;48.158;11.540;2023-12-20T08:30:39;1.60;;;1.50;;
1785;SDS011;890;48.158;11.540;2023-12-20T08:33:04;2.17;;;1.60;;
1785;SDS011;890;48.158;11.540;2023-12-20T08:35:32;1.90;;;1.70;;
1785;SDS011;890;48.158;11.540;2023-12-20T08:37:58;1.40;;;1.30;;
1785;SDS011;890;48.158;11.540;2023-12-20T08:40:25;2.33;;;1.50;;
1785;SDS011;890;48.158;11.540;2023-12-20T08:42:51;1.30;;;1.20;;
1785;SDS011;890;48.158;11.540;2023-12-20T08:45:18;2.67;;;1.50;;
1785;SDS011;890;48.158;11.540;2023-12-20T08:47:44;1.50;;;1.40;;
1785;SDS011;890;48.158;11.540;2023-12-20T08:50:10;1.60;;;1.50;;
1785;SDS011;890;48.158;11.540;2023-12-20T08:52:37;1.50;;;1.40;;
1785;SDS011;890;48.158;11.540;2023-12-20T08:55:03;1.83;;;1.40;;
1785;SDS011;890;48.158;11.540;2023-12-20T08:57:29;1.67;;;1.57;;
1785;SDS011;890;48.158;11.540;2023-12-20T08:59:56;1.63;;;1.53;;
1785;SDS011;890;48.158;11.540;2023-12-20T09:02:22;1.60;;;1.30;;
1785;SDS011;890;48.158;11.540;2023-12-20T09:04:48;2.50;;;1.70;;
1785;SDS011;890;48.158;11.540;2023-12-20T09:07:20;1.77;;;1.37;;
1785;SDS011;890;48.158;11.540;2023-12-20T09:09:48;1.50;;;1.40;;
1785;SDS011;890;48.158;11.540;2023-12-20T09:12:14;1.90;;;1.80;;
1785;SDS011;890;48.158;11.540;2023-12-20T09:14:40;1.57;;;1.40;;
1785;SDS011;890;48.158;11.540;2023-12-20T09:17:06;3.20;;;1.80;;
1785;SDS011;890;48.158;11.540;2023-12-20T09:19:34;2.63;;;1.77;;
1785;SDS011;890;48.158;11.540;2023-12-20T09:21:59;2.07;;;1.87;;
1785;SDS011;890;48.158;11.540;2023-12-20T09:24:27;1.70;;;1.60;;
1785;SDS011;890;48.158;11.540;2023-12-20T09:26:52;2.80;;;1.83;;
1785;SDS011;890;48.158;11.540;2023-12-20T09:29:18;1.47;;;1.33;;
1785;SDS011;890;48.158;11.540;2023-12-20T09:31:44;2.10;;;1.90;;
1785;SDS011;890;48.158;11.540;2023-12-20T09:34:11;2.97;;;2.77;;
1785;SDS011;890;48.158;11.540;2023-12-20T09:36:37;1.80;;;1.70;;
1785;SDS011;890;48.158;11.540;2023-12-20T09:39:05;2.57;;;1.73;;
1785;SDS011;890;48.158;11.540;2023-12-20T09:41:31;1.40;;;1.30;;
1785;SDS011;890;48.158;11.540;2023-12-20T09:43:59;2.50;;;1.70;;
1785;SDS011;890;48.158;11.540;2023-12-20T09:46:27;2.13;;;1.60;;
1785;SDS011;890;48.158;11.540;2023-12-20T09:48:58;1.90;;;1.80;;
1785;SDS011;890;48.158;11.540;2023-12-20T09:51:26;2.37;;;1.80;;
1785;SDS011;890;48.158;11.540;2023-12-20T09:53:54;3.07;;;1.90;;
1785;SDS011;890;48.158;11.540;2023-12-20T09:56:21;2.13;;;1.70;;
1785;SDS011;890;48.158;11.540;2023-12-20T09:58:47;3.00;;;2.00;;
1785;SDS011;890;48.158;11.540;2023-12-20T10:01:13;2.77;;;2.10;;
1785;SDS011;890;48.158;11.540;2023-12-20T10:03:41;1.70;;;1.60;;
1785;SDS011;890;48.158;11.540;2023-12-20T10:06:07;2.23;;;1.90;;
1785;SDS011;890;48.158;11.540;2023-12-20T10:08:33;2.40;;;2.10;;
1785;SDS011;890;48.158;11.540;2023-12-20T10:11:00;2.17;;;1.97;;
1785;SDS011;890;48.158;11.540;2023-12-20T10:13:29;2.00;;;1.80;;
1785;SDS011;890;48.158;11.540;2023-12-20T10:15:55;2.30;;;2.10;;
1785;SDS011;890;48.158;11.540;2023-12-20T10:18:21;2.70;;;2.50;;
1785;SDS011;890;48.158;11.540;2023-12-20T10:20:46;2.50;;;2.23;;
1785;SDS011;890;48.158;11.540;2023-12-20T10:23:12;2.10;;;1.90;;
1785;SDS011;890;48.158;11.540;2023-12-20T10:25:40;1.90;;;1.73;;
1785;SDS011;890;48.158;11.540;2023-12-20T10:28:13;2.23;;;2.03;;
1785;SDS011;890;48.158;11.540;2023-12-20T10:30:46;1.87;;;1.70;;
1785;SDS011;890;48.158;11.540;2023-12-20T10:33:32;2.30;;;1.77;;
1785;SDS011;890;48.158;11.540;2023-12-20T10:36:00;2.53;;;2.10;;
1785;SDS011;890;48.158;11.540;2023-12-20T10:38:26;2.50;;;2.30;;
1785;SDS011;890;48.158;11.540;2023-12-20T10:40:56;2.83;;;2.17;;
1785;SDS011;890;48.158;11.540;2023-12-20T10:43:24;2.20;;;2.00;;
1785;SDS011;890;48.158;11.540;2023-12-20T10:45:51;3.07;;;2.27;;
1785;SDS011;890;48.158;11.540;2023-12-20T10:48:17;2.20;;;2.00;;
1785;SDS011;890;48.158;11.540;2023-12-20T10:50:43;2.53;;;1.80;;
1785;SDS011;890;48.158;11.540;2023-12-20T10:53:11;2.10;;;1.90;;
1785;SDS011;890;48.158;11.540;2023-12-20T10:55:38;2.40;;;2.10;;
1785;SDS011;890;48.158;11.540;2023-12-20T10:58:07;2.40;;;2.17;;
1785;SDS011;890;48.158;11.540;2023-12-20T11:00:35;2.70;;;2.50;;
1785;SDS011;890;48.158;11.540;2023-12-20T11:03:05;2.10;;;1.90;;
1785;SDS011;890;48.158;11.540;2023-12-20T11:05:40;5.33;;;2.53;;
1785;SDS011;890;48.158;11.540;2023-12-20T11:08:22;2.30;;;2.10;;
1785;SDS011;890;48.158;11.540;2023-12-20T11:11:17;4.20;;;2.83;;
1785;SDS011;890;48.158;11.540;2023-12-20T11:14:02;2.60;;;2.40;;
1785;SDS011;890;48.158;11.540;2023-12-20T11:16:32;2.77;;;2.57;;
1785;SDS011;890;48.158;11.540;2023-12-20T11:18:57;3.47;;;2.30;;
1785;SDS011;890;48.158;11.540;2023-12-20T11:21:29;2.93;;;2.47;;
1785;SDS011;890;48.158;11.540;2023-12-20T11:23:55;4.77;;;2.80;;
1785;SDS011;890;48.158;11.540;2023-12-20T11:26:27;2.97;;;2.77;;
1785;SDS011;890;48.158;11.540;2023-12-20T11:31:54;2.80;;;2.60;;
1785;SDS011;890;48.158;11.540;2023-12-20T11:34:21;3.20;;;2.43;;
1785;SDS011;890;48.158;11.540;2023-12-20T11:36:56;3.47;;;3.17;;
1785;SDS011;890;48.158;11.540;2023-12-20T11:39:27;3.27;;;2.97;;
1785;SDS011;890;48.158;11.540;2023-12-20T11:41:56;3.40;;;2.63;;
1785;SDS011;890;48.158;11.540;2023-12-20T11:44:28;2.90;;;2.60;;
1785;SDS011;890;48.158;11.540;2023-12-20T11:46:56;2.73;;;2.50;;
1785;SDS011;890;48.158;11.540;2023-12-20T11:49:24;2.70;;;2.50;;
1785;SDS011;890;48.158;11.540;2023-12-20T11:51:50;3.67;;;2.97;;
1785;SDS011;890;48.158;11.540;2023-12-20T11:54:16;2.67;;;2.47;;
1785;SDS011;890;48.158;11.540;2023-12-20T11:56:42;3.10;;;2.80;;
1785;SDS011;890;48.158;11.540;2023-12-20T11:59:08;3.73;;;3.07;;
1785;SDS011;890;48.158;11.540;2023-12-20T12:01:38;3.03;;;2.73;;
1785;SDS011;890;48.158;11.540;2023-12-20T12:04:05;3.50;;;2.43;;
1785;SDS011;890;48.158;11.540;2023-12-20T12:06:32;3.07;;;2.77;;
1785;SDS011;890;48.158;11.540;2023-12-20T12:08:58;3.23;;;2.80;;
1785;SDS011;890;48.158;11.540;2023-12-20T12:11:24;2.53;;;2.33;;
1785;SDS011;890;48.158;11.540;2023-12-20T12:13:49;2.00;;;1.90;;
1785;SDS011;890;48.158;11.540;2023-12-20T12:16:19;2.57;;;2.07;;
1785;SDS011;890;48.158;11.540;2023-12-20T12:18:45;3.53;;;2.80;;
1785;SDS011;890;48.158;11.540;2023-12-20T12:21:20;2.37;;;2.17;;
1785;SDS011;890;48.158;11.540;2023-12-20T12:23:45;2.80;;;2.50;;
1785;SDS011;890;48.158;11.540;2023-12-20T12:26:11;2.10;;;1.93;;
1785;SDS011;890;48.158;11.540;2023-12-20T12:28:39;2.27;;;2.07;;
1785;SDS011;890;48.158;11.540;2023-12-20T12:31:07;2.73;;;2.20;;
1785;SDS011;890;48.158;11.540;2023-12-20T12:33:34;2.50;;;2.30;;
1785;SDS011;890;48.158;11.540;2023-12-20T12:36:04;3.60;;;2.17;;
1785;SDS011;890;48.158;11.540;2023-12-20T12:38:32;2.20;;;2.00;;
1785;SDS011;890;48.158;11.540;2023-12-20T12:40:58;1.70;;;1.60;;
1785;SDS011;890;48.158;11.540;2023-12-20T12:43:25;2.33;;;2.00;;
1785;SDS011;890;48.158;11.540;2023-12-20T12:45:50;2.20;;;2.00;;
1785;SDS011;890;48.158;11.540;2023-12-20T12:48:16;2.30;;;1.93;;
1785;SDS011;890;48.158;11.540;2023-12-20T12:50:44;2.30;;;2.10;;
1785;SDS011;890;48.158;11.540;2023-12-20T12:53:12;2.57;;;2.30;;
1785;SDS011;890;48.158;11.540;2023-12-20T12:55:39;3.00;;;2.17;;
1785;SDS011;890;48.158;11.540;2023-12-20T12:58:06;2.00;;;1.80;;
1785;SDS011;890;48.158;11.540;2023-12-20T13:00:32;2.87;;;2.60;;
1785;SDS011;890;48.158;11.540;2023-12-20T13:02:58;3.00;;;2.77;;
1785;SDS011;890;48.158;11.540;2023-12-20T13:05:23;3.10;;;2.70;;
1785;SDS011;890;48.158;11.540;2023-12-20T13:07:49;3.10;;;2.80;;
1785;SDS011;890;48.158;11.540;2023-12-20T13:10:15;3.10;;;2.80;;
1785;SDS011;890;48.158;11.540;2023-12-20T13:12:44;2.93;;;2.73;;
1785;SDS011;890;48.158;11.540;2023-12-20T13:15:10;2.70;;;2.50;;
1785;SDS011;890;48.158;11.540;2023-12-20T13:17:36;3.13;;;2.83;;
1785;SDS011;890;48.158;11.540;2023-12-20T13:20:03;2.33;;;2.10;;
1785;SDS011;890;48.158;11.540;2023-12-20T13:22:29;3.90;;;2.40;;
1785;SDS011;890;48.158;11.540;2023-12-20T13:24:54;3.03;;;2.70;;
1785;SDS011;890;48.158;11.540;2023-12-20T13:27:20;2.40;;;2.20;;
1785;SDS011;890;48.158;11.540;2023-12-20T13:29:47;3.07;;;2.67;;
1785;SDS011;890;48.158;11.540;2023-12-20T13:32:12;3.40;;;2.20;;
1785;SDS011;890;48.158;11.540;2023-12-20T13:34:38;3.50;;;3.20;;
1785;SDS011;890;48.158;11.540;2023-12-20T13:37:03;3.97;;;2.77;;
1785;SDS011;890;48.158;11.540;2023-12-20T13:39:29;3.97;;;2.70;;
1785;SDS011;890;48.158;11.540;2023-12-20T13:41:56;3.50;;;2.70;;
1785;SDS011;890;48.158;11.540;2023-12-20T13:44:23;3.53;;;3.10;;
1785;SDS011;890;48.158;11.540;2023-12-20T13:46:51;3.20;;;2.90;;
1785;SDS011;890;48.158;11.540;2023-12-20T13:49:17;4.00;;;3.37;;
1785;SDS011;890;48.158;11.540;2023-12-20T13:51:45;3.27;;;2.97;;
1785;SDS011;890;48.158;11.540;2023-12-20T13:54:12;3.20;;;2.73;;
1785;SDS011;890;48.158;11.540;2023-12-20T13:56:38;3.13;;;2.83;;
1785;SDS011;890;48.158;11.540;2023-12-20T13:59:05;3.90;;;3.53;;
1785;SDS011;890;48.158;11.540;2023-12-20T14:01:32;3.93;;;3.47;;
1785;SDS011;890;48.158;11.540;2023-12-20T14:03:58;4.60;;;3.13;;
1785;SDS011;890;48.158;11.540;2023-12-20T14:06:26;7.40;;;2.90;;
1785;SDS011;890;48.158;11.540;2023-12-20T14:08:52;3.67;;;2.90;;
1785;SDS011;890;48.158;11.540;2023-12-20T14:11:18;3.23;;;2.90;;
1785;SDS011;890;48.158;11.540;2023-12-20T14:13:44;3.13;;;2.83;;
1785;SDS011;890;48.158;11.540;2023-12-20T14:16:09;4.50;;;2.93;;
1785;SDS011;890;48.158;11.540;2023-12-20T14:18:35;5.10;;;3.37;;
1785;SDS011;890;48.158;11.540;2023-12-20T14:21:05;3.40;;;3.10;;
1785;SDS011;890;48.158;11.540;2023-12-20T14:23:31;7.90;;;3.50;;
1785;SDS011;890;48.158;11.540;2023-12-20T14:25:58;4.10;;;2.80;;
1785;SDS011;890;48.158;11.540;2023-12-20T14:28:24;2.80;;;2.60;;
1785;SDS011;890;48.158;11.540;2023-12-20T14:30:50;4.17;;;3.50;;
1785;SDS011;890;48.158;11.540;2023-12-20T14:33:17;3.13;;;2.50;;
1785;SDS011;890;48.158;11.540;2023-12-20T14:35:45;2.63;;;2.43;;
1785;SDS011;890;48.158;11.540;2023-12-20T14:38:11;3.93;;;3.50;;
1785;SDS011;890;48.158;11.540;2023-12-20T14:40:41;4.53;;;3.20;;
1785;SDS011;890;48.158;11.540;2023-12-20T14:43:07;5.60;;;2.80;;
1785;SDS011;890;48.158;11.540;2023-12-20T14:45:33;3.40;;;2.90;;
1785;SDS011;890;48.158;11.540;2023-12-20T14:47:58;3.23;;;2.70;;
1785;SDS011;890;48.158;11.540;2023-12-20T14:50:24;3.40;;;2.77;;
1785;SDS011;890;48.158;11.540;2023-12-20T14:52:50;3.57;;;3.10;;
1785;SDS011;890;48.158;11.540;2023-12-20T14:55:19;8.80;;;4.13;;
1785;SDS011;890;48.158;11.540;2023-12-20T14:57:45;3.20;;;2.70;;
1785;SDS011;890;48.158;11.540;2023-12-20T15:00:10;3.90;;;3.50;;
1785;SDS011;890;48.158;11.540;2023-12-20T15:02:41;4.17;;;3.33;;
1785;SDS011;890;48.158;11.540;2023-12-20T15:05:07;3.80;;;3.40;;
1785;SDS011;890;48.158;11.540;2023-12-20T15:07:32;3.63;;;2.60;;
1785;SDS011;890;48.158;11.540;2023-12-20T15:09:58;5.57;;;3.83;;
1785;SDS011;890;48.158;11.540;2023-12-20T15:12:23;3.87;;;3.10;;
1785;SDS011;890;48.158;11.540;2023-12-20T15:14:49;4.10;;;3.33;;